createdAt,value
2023-02-04T00:00:29.212Z,96.53
2023-02-04T00:02:57.082Z,96.38
2023-02-04T00:05:26.415Z,96.61
2023-02-04T00:07:54.054Z,96.93
2023-02-04T00:10:22.123Z,96.83
2023-02-04T00:12:49.914Z,95.85
2023-02-04T00:15:17.933Z,96.96
2023-02-04T00:17:45.659Z,97.96
2023-02-04T00:20:14.083Z,97.22
2023-02-04T00:22:43.195Z,98.25
2023-02-04T00:25:11.063Z,96.80
2023-02-04T00:27:38.911Z,96.80
2023-02-04T00:30:08.353Z,96.87
2023-02-04T00:32:36.047Z,98.13
2023-02-04T00:35:04.870Z,97.92
2023-02-04T00:37:32.766Z,98.13
2023-02-04T00:40:02.049Z,97.06
2023-02-04T00:42:30.820Z,97.48
2023-02-04T00:44:59.344Z,97.12
2023-02-04T00:47:27.674Z,96.57
2023-02-04T00:49:57.215Z,97.46
2023-02-04T00:52:25.204Z,97.88
2023-02-04T00:54:52.797Z,97.42
2023-02-04T00:57:21.923Z,97.67
2023-02-04T00:59:49.605Z,97.98
2023-02-04T01:02:18.717Z,97.97
2023-02-04T01:04:46.540Z,98.22
2023-02-04T01:07:14.761Z,98.06
2023-02-04T01:09:42.451Z,97.68
2023-02-04T01:12:10.150Z,97.68
2023-02-04T01:14:39.066Z,97.73
2023-02-04T01:17:07.108Z,97.76
2023-02-04T01:19:34.943Z,98.44
2023-02-04T01:22:05.527Z,99.19
2023-02-04T01:24:33.158Z,98.43
2023-02-04T01:27:20.217Z,98.52
2023-02-04T01:29:49.155Z,97.69
2023-02-04T01:32:17.988Z,97.77
2023-02-04T01:34:45.660Z,97.63
2023-02-04T01:37:13.729Z,98.61
2023-02-04T01:39:42.551Z,97.98
2023-02-04T01:42:10.808Z,97.91
2023-02-04T01:44:39.400Z,98.77
2023-02-04T01:47:08.930Z,98.04
2023-02-04T01:49:36.534Z,97.44
2023-02-04T01:52:05.579Z,97.12
2023-02-04T01:54:33.508Z,97.43
2023-02-04T01:57:02.008Z,97.87
2023-02-04T01:59:29.752Z,97.26
2023-02-04T02:02:01.478Z,97.17
2023-02-04T02:04:33.858Z,97.31
2023-02-04T02:07:06.930Z,97.14
2023-02-04T02:09:35.473Z,96.96
2023-02-04T02:12:04.693Z,96.71
2023-02-04T02:14:32.709Z,97.04
2023-02-04T02:17:01.377Z,96.72
2023-02-04T02:19:34.591Z,96.33
2023-02-04T02:22:06.960Z,97.36
2023-02-04T02:24:37.761Z,96.66
2023-02-04T02:27:08.323Z,96.64
2023-02-04T02:29:36.454Z,96.31
2023-02-04T02:32:06.215Z,96.47
2023-02-04T02:34:35.320Z,96.65
2023-02-04T02:37:05.271Z,95.43
2023-02-04T02:39:33.278Z,95.42
2023-02-04T02:42:03.126Z,96.82
2023-02-04T02:44:31.392Z,98.70
2023-02-04T02:47:00.091Z,97.92
2023-02-04T02:49:35.205Z,98.48
2023-02-04T02:52:02.941Z,96.79
2023-02-04T02:54:32.964Z,96.40
2023-02-04T02:57:06.703Z,96.27
2023-02-04T02:59:34.644Z,95.95
2023-02-04T03:02:05.259Z,96.35
2023-02-04T03:04:40.440Z,96.69
2023-02-04T03:07:11.370Z,96.11
2023-02-04T03:09:40.109Z,96.62
2023-02-04T03:12:09.923Z,96.41
2023-02-04T03:14:39.315Z,97.04
2023-02-04T03:17:08.304Z,96.48
2023-02-04T03:19:37.609Z,96.15
2023-02-04T03:22:06.526Z,95.95
2023-02-04T03:24:34.992Z,96.23
2023-02-04T03:27:04.470Z,95.65
2023-02-04T03:29:33.772Z,95.63
2023-02-04T03:32:01.404Z,95.54
2023-02-04T03:34:29.600Z,95.12
2023-02-04T03:36:57.225Z,94.80
2023-02-04T03:39:25.504Z,94.42
2023-02-04T03:41:53.108Z,94.42
2023-02-04T03:44:22.021Z,94.31
2023-02-04T03:46:55.245Z,93.64
2023-02-04T03:49:23.578Z,93.29
2023-02-04T03:51:51.397Z,92.42
2023-02-04T03:54:19.623Z,92.64
2023-02-04T03:56:47.213Z,92.94
2023-02-04T03:59:15.071Z,92.73
2023-02-04T04:01:42.843Z,92.98
2023-02-04T04:04:11.903Z,92.80
2023-02-04T04:06:39.481Z,92.68
2023-02-04T04:09:07.533Z,91.63
2023-02-04T04:11:35.148Z,91.99
2023-02-04T04:14:04.271Z,91.67
2023-02-04T04:16:31.858Z,91.81
2023-02-04T04:19:00.047Z,91.90
2023-02-04T04:21:29.554Z,91.62
2023-02-04T04:23:57.477Z,92.85
2023-02-04T04:26:25.192Z,92.75
2023-02-04T04:28:52.878Z,92.36
2023-02-04T04:31:20.549Z,92.55
2023-02-04T04:33:48.230Z,92.69
2023-02-04T04:36:15.854Z,93.20
2023-02-04T04:38:45.530Z,92.51
2023-02-04T04:41:13.102Z,92.15
2023-02-04T04:43:41.141Z,92.33
2023-02-04T04:46:09.079Z,92.31
2023-02-04T04:48:36.681Z,91.77
2023-02-04T04:51:05.102Z,91.93
2023-02-04T04:53:32.761Z,91.69
2023-02-04T04:56:02.376Z,91.38
2023-02-04T04:58:29.946Z,91.07
2023-02-04T05:00:57.790Z,91.11
2023-02-04T05:03:25.541Z,90.42
2023-02-04T05:05:53.762Z,90.44
2023-02-04T05:08:21.377Z,89.88
2023-02-04T05:10:50.190Z,89.86
2023-02-04T05:13:19.112Z,90.19
2023-02-04T05:15:47.356Z,90.21
2023-02-04T05:18:14.953Z,90.79
2023-02-04T05:20:42.566Z,89.04
2023-02-04T05:23:10.158Z,88.76
2023-02-04T05:25:38.529Z,88.14
2023-02-04T05:28:06.419Z,88.85
2023-02-04T05:30:35.780Z,90.26
2023-02-04T05:33:03.385Z,90.48
2023-02-04T05:35:31.628Z,90.28
2023-02-04T05:37:59.210Z,90.81
2023-02-04T05:40:27.180Z,90.84
2023-02-04T05:42:54.748Z,90.91
2023-02-04T05:45:23.103Z,90.78
2023-02-04T05:47:52.114Z,90.87
2023-02-04T05:50:20.509Z,91.32
2023-02-04T05:52:48.176Z,91.88
2023-02-04T05:55:16.107Z,91.97
2023-02-04T05:57:43.702Z,91.81
2023-02-04T06:00:13.249Z,92.22
2023-02-04T06:02:41.250Z,91.98
2023-02-04T06:05:10.671Z,91.31
2023-02-04T06:07:38.307Z,91.12
2023-02-04T06:10:06.470Z,91.54
2023-02-04T06:12:34.133Z,90.86
2023-02-04T06:15:02.828Z,90.82
2023-02-04T06:17:30.460Z,91.13
2023-02-04T06:19:58.443Z,91.34
2023-02-04T06:22:27.675Z,91.36
2023-02-04T06:24:55.384Z,90.93
2023-02-04T06:27:24.957Z,90.65
2023-02-04T06:29:53.206Z,89.97
2023-02-04T06:32:22.218Z,89.40
2023-02-04T06:34:50.337Z,89.19
2023-02-04T06:37:18.708Z,89.89
2023-02-04T06:39:47.624Z,89.04
2023-02-04T06:42:16.241Z,89.92
2023-02-04T06:44:43.811Z,89.42
2023-02-04T06:47:11.595Z,89.03
2023-02-04T06:49:39.204Z,88.98
2023-02-04T06:52:07.201Z,89.78
2023-02-04T06:54:34.871Z,88.65
2023-02-04T06:57:07.142Z,87.92
2023-02-04T06:59:35.056Z,87.47
2023-02-04T07:02:04.224Z,87.15
2023-02-04T07:04:31.972Z,87.55
2023-02-04T07:07:00.265Z,87.98
2023-02-04T07:09:27.974Z,88.55
2023-02-04T07:11:56.499Z,88.37
2023-02-04T07:14:25.420Z,88.33
2023-02-04T07:16:53.795Z,88.42
2023-02-04T07:19:21.414Z,88.97
2023-02-04T07:21:54.193Z,88.54
2023-02-04T07:24:21.845Z,87.62
2023-02-04T07:26:50.456Z,87.05
2023-02-04T07:29:25.111Z,87.03
2023-02-04T07:31:55.253Z,88.20
2023-02-04T07:34:23.352Z,87.78
2023-02-04T07:36:51.603Z,87.83
2023-02-04T07:39:19.344Z,87.97
2023-02-04T07:41:46.997Z,88.44
2023-02-04T07:44:21.420Z,88.61
2023-02-04T07:46:49.469Z,87.84
2023-02-04T07:49:18.439Z,87.79
2023-02-04T07:51:46.676Z,87.85
2023-02-04T07:54:14.399Z,87.31
2023-02-04T07:56:42.027Z,87.28
2023-02-04T07:59:09.688Z,85.83
2023-02-04T08:01:37.748Z,86.37
2023-02-04T08:04:05.939Z,86.10
2023-02-04T08:06:35.509Z,85.59
2023-02-04T08:09:03.096Z,84.35
2023-02-04T08:11:30.726Z,84.85
2023-02-04T08:13:58.312Z,85.32
2023-02-04T08:16:25.980Z,84.40
2023-02-04T08:18:54.266Z,84.29
2023-02-04T08:21:21.851Z,84.07
2023-02-04T08:23:51.322Z,84.10
2023-02-04T08:26:18.971Z,83.79
2023-02-04T08:28:46.956Z,84.03
2023-02-04T08:31:14.605Z,83.71
2023-02-04T08:33:42.757Z,82.99
2023-02-04T08:36:10.466Z,82.34
2023-02-04T08:38:38.059Z,83.32
2023-02-04T08:41:07.198Z,82.80
2023-02-04T08:43:35.429Z,83.12
2023-02-04T08:46:03.037Z,83.05
2023-02-04T08:48:31.431Z,83.28
2023-02-04T08:50:59.096Z,83.39
2023-02-04T08:53:27.648Z,83.02
2023-02-04T08:55:55.293Z,81.13
2023-02-04T08:58:24.461Z,80.83
2023-02-04T09:00:52.120Z,80.16
2023-02-04T09:03:19.795Z,79.71
2023-02-04T09:05:47.566Z,79.54
2023-02-04T09:08:16.101Z,80.58
2023-02-04T09:10:43.682Z,79.71
2023-02-04T09:13:12.373Z,79.36
2023-02-04T09:15:41.432Z,79.10
2023-02-04T09:18:16.327Z,79.35
2023-02-04T09:20:44.263Z,80.10
2023-02-04T09:23:13.271Z,80.42
2023-02-04T09:25:41.705Z,80.28
2023-02-04T09:28:11.883Z,79.71
2023-02-04T09:30:41.957Z,78.99
2023-02-04T09:33:10.908Z,79.45
2023-02-04T09:35:38.928Z,79.15
2023-02-04T09:38:07.136Z,80.60
2023-02-04T09:40:38.623Z,80.83
2023-02-04T09:43:07.349Z,79.54
2023-02-04T09:45:36.984Z,80.37
2023-02-04T09:48:09.567Z,78.04
2023-02-04T09:50:38.369Z,78.26
2023-02-04T09:53:08.638Z,78.43
2023-02-04T09:55:40.296Z,78.43
2023-02-04T09:58:16.372Z,76.70
2023-02-04T10:00:45.201Z,77.51
2023-02-04T10:03:17.848Z,76.96
2023-02-04T10:05:47.091Z,78.82
2023-02-04T10:08:16.856Z,77.44
2023-02-04T10:10:46.342Z,75.07
2023-02-04T10:13:19.305Z,77.48
2023-02-04T10:15:48.721Z,76.44
2023-02-04T10:18:23.831Z,76.42
2023-02-04T10:20:51.770Z,76.21
2023-02-04T10:23:19.354Z,73.59
2023-02-04T10:25:46.903Z,71.94
2023-02-04T10:28:14.505Z,72.28
2023-02-04T10:30:44.233Z,71.65
2023-02-04T10:33:17.002Z,70.01
2023-02-04T10:35:48.421Z,70.03
2023-02-04T10:38:16.028Z,69.54
2023-02-04T10:40:44.337Z,68.71
2023-02-04T10:43:16.302Z,70.03
2023-02-04T10:45:47.493Z,70.48
2023-02-04T10:48:17.441Z,70.78
2023-02-04T10:50:48.329Z,70.70
2023-02-04T10:53:35.955Z,70.02
2023-02-04T10:56:03.643Z,69.68
2023-02-04T10:58:32.524Z,70.45
2023-02-04T11:01:00.414Z,69.73
2023-02-04T11:03:30.752Z,68.13
2023-02-04T11:06:02.106Z,67.84
2023-02-04T11:08:33.632Z,68.12
2023-02-04T11:11:05.647Z,68.96
2023-02-04T11:13:41.777Z,69.15
2023-02-04T11:16:13.884Z,69.58
2023-02-04T11:18:47.472Z,69.55
2023-02-04T11:21:24.165Z,68.92
2023-02-04T11:24:03.780Z,69.81
2023-02-04T11:26:38.256Z,65.46
2023-02-04T11:29:27.627Z,65.41
2023-02-04T11:32:01.937Z,65.71
2023-02-04T11:34:46.782Z,67.39
2023-02-04T11:37:35.177Z,69.24
2023-02-04T11:40:21.476Z,67.80
2023-02-04T11:42:49.533Z,65.91
2023-02-04T11:45:30.130Z,60.99
2023-02-04T11:48:00.453Z,58.02
2023-02-04T11:50:30.958Z,55.43
2023-02-04T11:53:02.846Z,56.92
2023-02-04T11:55:33.146Z,55.84
2023-02-04T11:58:01.227Z,56.28
2023-02-04T12:00:32.178Z,57.20
2023-02-04T12:03:02.050Z,57.88
2023-02-04T12:05:44.486Z,58.87
2023-02-04T12:08:25.411Z,59.74
2023-02-04T12:11:03.115Z,60.37
2023-02-04T12:13:32.027Z,63.62
2023-02-04T12:16:01.866Z,60.61
2023-02-04T12:18:30.452Z,61.10
2023-02-04T12:20:59.469Z,61.58
2023-02-04T12:23:30.388Z,62.18
2023-02-04T12:25:58.549Z,62.57
2023-02-04T12:28:27.894Z,62.88
2023-02-04T12:30:56.000Z,63.32
2023-02-04T12:33:23.951Z,65.69
2023-02-04T12:35:52.230Z,62.55
2023-02-04T12:38:20.710Z,63.46
2023-02-04T12:40:50.000Z,63.57
2023-02-04T12:43:17.580Z,62.85
2023-02-04T12:45:46.850Z,61.72
2023-02-04T12:48:15.046Z,62.84
2023-02-04T12:50:43.068Z,65.70
2023-02-04T12:53:11.041Z,64.85
2023-02-04T12:55:38.703Z,63.23
2023-02-04T12:58:08.116Z,61.87
2023-02-04T13:00:35.736Z,62.08
2023-02-04T13:03:04.137Z,61.73
2023-02-04T13:05:32.306Z,61.02
2023-02-04T13:08:00.698Z,61.00
2023-02-04T13:10:28.392Z,62.42
2023-02-04T13:12:56.256Z,63.35
2023-02-04T13:15:25.182Z,63.42
2023-02-04T13:17:53.181Z,64.57
2023-02-04T13:20:20.957Z,64.76
2023-02-04T13:22:48.590Z,64.47
2023-02-04T13:25:16.404Z,64.83
2023-02-04T13:27:44.510Z,64.99
2023-02-04T13:30:14.601Z,65.16
2023-02-04T13:32:43.845Z,65.83
2023-02-04T13:35:11.543Z,64.84
2023-02-04T13:37:39.552Z,64.92
2023-02-04T13:40:09.406Z,64.10
2023-02-04T13:42:37.336Z,64.12
2023-02-04T13:45:07.632Z,65.20
2023-02-04T13:47:35.216Z,64.54
2023-02-04T13:50:04.383Z,64.90
2023-02-04T13:52:33.208Z,64.59
2023-02-04T13:55:00.900Z,65.12
2023-02-04T13:57:30.500Z,64.40
2023-02-04T13:59:58.070Z,64.00
2023-02-04T14:02:26.492Z,64.19
2023-02-04T14:04:54.142Z,65.20
2023-02-04T14:07:23.281Z,64.96
2023-02-04T14:09:50.899Z,64.85
2023-02-04T14:12:19.024Z,65.58
2023-02-04T14:14:46.600Z,65.75
2023-02-04T14:17:14.368Z,66.35
2023-02-04T14:19:41.949Z,66.37
2023-02-04T14:22:12.974Z,66.23
2023-02-04T14:24:42.708Z,66.19
2023-02-04T14:27:11.869Z,66.47
2023-02-04T14:29:39.744Z,67.47
2023-02-04T14:32:08.372Z,67.39
2023-02-04T14:34:36.156Z,67.35
2023-02-04T14:37:03.737Z,67.37
2023-02-04T14:39:31.629Z,67.37
2023-02-04T14:42:00.724Z,66.67
2023-02-04T14:44:29.255Z,66.41
2023-02-04T14:46:56.859Z,66.62
2023-02-04T14:49:25.315Z,66.93
2023-02-04T14:51:53.083Z,67.42
2023-02-04T14:54:20.793Z,67.91
2023-02-04T14:56:50.373Z,67.83
2023-02-04T14:59:20.262Z,68.64
2023-02-04T15:01:47.821Z,68.95
2023-02-04T15:04:15.842Z,69.32
2023-02-04T15:06:43.465Z,69.83
2023-02-04T15:09:11.413Z,69.57
2023-02-04T15:11:39.265Z,70.01
2023-02-04T15:14:07.216Z,69.99
2023-02-04T15:16:36.259Z,70.13
2023-02-04T15:19:04.109Z,70.26
2023-02-04T15:21:31.698Z,70.35
2023-02-04T15:23:59.862Z,70.30
2023-02-04T15:26:28.056Z,70.88
2023-02-04T15:28:56.228Z,70.54
2023-02-04T15:31:24.137Z,71.04
2023-02-04T15:33:53.982Z,71.38
2023-02-04T15:36:21.585Z,71.61
2023-02-04T15:38:49.552Z,72.33
2023-02-04T15:41:17.264Z,72.22
2023-02-04T15:43:45.691Z,72.45
2023-02-04T15:46:13.301Z,72.83
2023-02-04T15:48:41.654Z,73.24
2023-02-04T15:51:10.604Z,73.50
2023-02-04T15:53:40.560Z,73.97
2023-02-04T15:56:08.241Z,74.37
2023-02-04T15:58:37.071Z,74.72
2023-02-04T16:01:04.850Z,74.99
2023-02-04T16:03:33.088Z,75.03
2023-02-04T16:06:00.708Z,75.31
2023-02-04T16:08:30.282Z,75.68
2023-02-04T16:10:57.854Z,75.75
2023-02-04T16:13:25.962Z,75.96
2023-02-04T16:15:53.599Z,75.99
2023-02-04T16:18:23.913Z,76.41
2023-02-04T16:20:51.488Z,76.56
2023-02-04T16:23:20.157Z,76.58
2023-02-04T16:25:49.108Z,76.61
2023-02-04T16:28:17.008Z,76.73
2023-02-04T16:30:45.082Z,76.68
2023-02-04T16:33:12.681Z,76.93
2023-02-04T16:36:00.180Z,76.83
2023-02-04T16:38:28.239Z,76.63
2023-02-04T16:40:58.135Z,76.79
2023-02-04T16:43:25.936Z,76.57
2023-02-04T16:45:54.474Z,76.67
2023-02-04T16:48:22.036Z,77.06
2023-02-04T16:50:50.100Z,76.94
2023-02-04T16:53:17.743Z,77.10
2023-02-04T16:55:48.551Z,76.98
2023-02-04T16:58:18.668Z,77.33
2023-02-04T17:00:46.621Z,77.32
2023-02-04T17:03:14.890Z,77.55
2023-02-04T17:05:43.896Z,77.60
2023-02-04T17:08:13.556Z,77.56
2023-02-04T17:10:59.786Z,77.37
2023-02-04T17:13:29.026Z,77.73
2023-02-04T17:16:00.643Z,77.68
2023-02-04T17:18:29.724Z,77.75
2023-02-04T17:20:57.998Z,78.45
2023-02-04T17:23:26.776Z,78.45
2023-02-04T17:25:55.046Z,78.55
2023-02-04T17:28:24.147Z,78.71
2023-02-04T17:30:53.551Z,78.74
2023-02-04T17:33:21.170Z,78.99
2023-02-04T17:35:49.101Z,79.09
2023-02-04T17:38:16.726Z,79.10
2023-02-04T17:40:45.013Z,79.49
2023-02-04T17:43:12.580Z,79.50
2023-02-04T17:45:40.811Z,79.42
2023-02-04T17:48:09.900Z,79.97
2023-02-04T17:50:40.256Z,79.75
2023-02-04T17:53:08.551Z,80.21
2023-02-04T17:55:39.306Z,79.89
2023-02-04T17:58:14.298Z,80.37
2023-02-04T18:00:43.968Z,80.40
2023-02-04T18:03:15.022Z,80.59
2023-02-04T18:05:46.686Z,80.20
2023-02-04T18:08:16.844Z,80.73
2023-02-04T18:10:46.880Z,80.01
2023-02-04T18:13:17.189Z,80.26
2023-02-04T18:15:47.255Z,79.67
2023-02-04T18:18:21.319Z,79.97
2023-02-04T18:20:56.951Z,80.43
2023-02-04T18:23:24.555Z,79.96
2023-02-04T18:25:53.208Z,80.31
2023-02-04T18:28:22.127Z,80.08
2023-02-04T18:30:54.203Z,80.45
2023-02-04T18:33:25.922Z,80.43
2023-02-04T18:35:59.460Z,80.34
2023-02-04T18:38:29.009Z,80.85
2023-02-04T18:41:10.502Z,80.54
2023-02-04T18:43:38.807Z,80.75
2023-02-04T18:46:24.967Z,80.49
2023-02-04T18:49:07.346Z,80.93
2023-02-04T18:51:40.167Z,81.24
2023-02-04T18:54:35.885Z,81.24
2023-02-04T18:57:28.699Z,81.33
2023-02-04T19:00:26.204Z,81.54
2023-02-04T19:02:56.604Z,81.16
2023-02-04T19:05:30.570Z,80.88
2023-02-04T19:08:23.022Z,81.43
2023-02-04T19:10:52.125Z,81.44
2023-02-04T19:13:22.694Z,81.86
2023-02-04T19:15:58.749Z,81.68
2023-02-04T19:18:28.723Z,82.16
2023-02-04T19:21:09.228Z,81.49
2023-02-04T19:23:38.893Z,81.17
2023-02-04T19:26:26.171Z,81.05
2023-02-04T19:28:54.919Z,80.91
2023-02-04T19:31:23.622Z,80.71
2023-02-04T19:33:53.350Z,80.80
2023-02-04T19:36:35.373Z,80.94
2023-02-04T19:39:06.007Z,80.90
2023-02-04T19:41:42.545Z,80.44
2023-02-04T19:44:39.203Z,80.33
2023-02-04T19:47:24.598Z,80.25
2023-02-04T19:49:56.130Z,79.59
2023-02-04T19:52:36.408Z,79.98
2023-02-04T19:55:37.989Z,80.77
2023-02-04T19:58:16.709Z,80.95
2023-02-04T20:00:46.905Z,80.30
2023-02-04T20:03:39.483Z,80.59
2023-02-04T20:06:30.122Z,81.30
2023-02-04T20:09:05.259Z,81.40
2023-02-04T20:11:42.436Z,81.45
2023-02-04T20:14:50.429Z,81.56
2023-02-04T20:17:37.309Z,81.00
2023-02-04T20:20:21.268Z,81.77
2023-02-04T20:22:51.928Z,81.13
2023-02-04T20:25:42.943Z,81.48
2023-02-04T20:28:23.425Z,81.07
2023-02-04T20:30:52.665Z,81.12
2023-02-04T20:33:28.375Z,81.85
2023-02-04T20:36:25.668Z,81.59
2023-02-04T20:38:59.710Z,81.80
2023-02-04T20:41:31.095Z,81.96
2023-02-04T20:43:59.949Z,81.79
2023-02-04T20:46:27.692Z,82.21
2023-02-04T20:48:55.916Z,81.71
2023-02-04T20:51:26.549Z,81.52
2023-02-04T20:53:55.458Z,82.17
2023-02-04T20:56:26.307Z,81.30
2023-02-04T20:58:58.149Z,81.36
2023-02-04T21:01:33.807Z,80.91
2023-02-04T21:04:16.081Z,81.85
2023-02-04T21:06:43.888Z,81.31
2023-02-04T21:09:22.279Z,81.15
2023-02-04T21:11:50.152Z,82.34
2023-02-04T21:14:19.674Z,83.00
2023-02-04T21:16:48.041Z,82.32
2023-02-04T21:19:16.845Z,82.82
2023-02-04T21:21:44.581Z,82.33
2023-02-04T21:24:12.383Z,83.16
2023-02-04T21:26:40.385Z,82.88
2023-02-04T21:29:08.420Z,82.93
2023-02-04T21:31:37.483Z,82.77
2023-02-04T21:34:06.485Z,82.45
2023-02-04T21:36:34.450Z,83.02
2023-02-04T21:39:03.564Z,83.34
2023-02-04T21:41:31.202Z,82.67
2023-02-04T21:43:59.202Z,82.66
2023-02-04T21:46:26.869Z,82.35
2023-02-04T21:48:56.120Z,83.02
2023-02-04T21:51:24.011Z,82.35
2023-02-04T21:53:51.837Z,82.36
2023-02-04T21:56:19.451Z,83.02
2023-02-04T21:58:47.704Z,83.21
2023-02-04T22:01:15.369Z,82.73
2023-02-04T22:03:43.698Z,82.73
2023-02-04T22:06:12.642Z,81.92
2023-02-04T22:08:40.715Z,81.97
2023-02-04T22:11:08.308Z,82.27
2023-02-04T22:13:54.257Z,82.11
2023-02-04T22:16:21.859Z,82.17
2023-02-04T22:18:49.430Z,82.14
2023-02-04T22:21:18.333Z,82.71
2023-02-04T22:23:46.272Z,83.20
2023-02-04T22:26:13.840Z,82.69
2023-02-04T22:28:42.075Z,82.53
2023-02-04T22:31:09.724Z,82.25
2023-02-04T22:33:38.106Z,82.71
2023-02-04T22:36:06.041Z,83.52
2023-02-04T22:38:34.974Z,83.56
2023-02-04T22:41:02.550Z,82.99
2023-02-04T22:43:30.107Z,83.91
2023-02-04T22:45:58.260Z,82.98
2023-02-04T22:48:25.828Z,83.20
2023-02-04T22:50:55.082Z,83.86
2023-02-04T22:53:22.656Z,83.27
2023-02-04T22:55:52.293Z,83.46
2023-02-04T22:58:19.882Z,84.09
2023-02-04T23:00:48.383Z,83.29
2023-02-04T23:03:15.995Z,83.78
2023-02-04T23:05:45.288Z,83.42
2023-02-04T23:08:13.103Z,84.10
2023-02-04T23:10:41.240Z,83.56
2023-02-04T23:13:10.636Z,84.07
2023-02-04T23:15:38.391Z,84.10
2023-02-04T23:18:06.461Z,83.66
2023-02-04T23:20:35.105Z,83.63
2023-02-04T23:23:03.030Z,83.84
2023-02-04T23:25:31.110Z,84.86
2023-02-04T23:27:58.796Z,84.09
2023-02-04T23:30:27.980Z,84.00
2023-02-04T23:32:55.559Z,84.52
2023-02-04T23:35:23.487Z,83.84
2023-02-04T23:37:51.072Z,83.82
2023-02-04T23:40:19.247Z,84.32
2023-02-04T23:42:46.845Z,84.05
2023-02-04T23:45:15.192Z,84.19
2023-02-04T23:47:44.144Z,84.09
2023-02-04T23:50:12.124Z,84.89
2023-02-04T23:52:40.018Z,84.82
2023-02-04T23:55:08.364Z,84.53
2023-02-04T23:57:36.442Z,84.95
